Adams, Massachusetts
Current Conditions -  °F | °C
As of 9:52 AM on Thursday 30 Oct 2014 (Local Time) from KAQW Reporting Station
Overcast Overcast  
Wind Chill: 42°   Ceiling: 3600
Heat Index: 47°   Visibility: 10mi
Dew Point: 38°   Wind: 10mph
Humidity: 71%   Direction: 270°W
Pressure: 29.97"   Gusts: NA
Location:  42.62°N, 73.12°W
Report Text: KAQW 301352Z AUTO 27009KT 10SM SCT028 BKN036 OVC046 08/03 A2997 RMK AO2 SLP152 T00830033
Loading
Personal Weather Stations






























Interactive Weather Map
Tropical Storm Tracking
New forecast layout! Learn more

10-Day Weather Forecast

Advertisements
Track Severe Weather on mobile